createdAt,value
2023-03-10T00:01:44.000Z,0.00
2023-03-10T00:16:19.000Z,0.00
2023-03-10T00:30:56.000Z,0.00
2023-03-10T00:45:34.000Z,0.00
2023-03-10T01:00:11.000Z,0.00
2023-03-10T01:14:46.000Z,0.00
2023-03-10T01:29:22.000Z,0.00
2023-03-10T01:43:59.000Z,0.00
2023-03-10T01:58:28.000Z,0.00
2023-03-10T02:13:03.000Z,0.00
2023-03-10T02:27:41.000Z,0.00
2023-03-10T02:42:14.000Z,0.00
2023-03-10T02:56:49.000Z,0.00
2023-03-10T03:11:26.000Z,0.00
2023-03-10T03:26:00.000Z,0.00
2023-03-10T03:40:34.000Z,0.00
2023-03-10T03:55:09.000Z,0.00
2023-03-10T04:09:47.000Z,0.00
2023-03-10T04:24:24.000Z,0.00
2023-03-10T04:39:02.000Z,0.00
2023-03-10T04:53:39.000Z,0.00
2023-03-10T05:08:16.000Z,0.00
2023-03-10T05:22:54.000Z,0.00
2023-03-10T05:37:32.000Z,0.83
2023-03-10T05:52:09.000Z,4.17
2023-03-10T06:06:47.000Z,25.83
2023-03-10T06:21:24.000Z,100.00
2023-03-10T06:36:01.000Z,98.33
2023-03-10T06:50:36.000Z,118.33
2023-03-10T07:05:12.000Z,121.67
2023-03-10T07:19:47.000Z,163.33
2023-03-10T07:34:20.000Z,231.67
2023-03-10T07:48:55.000Z,440.83
2023-03-10T08:03:35.000Z,676.67
2023-03-10T08:18:12.000Z,624.17
2023-03-10T08:32:51.000Z,1006.67
2023-03-10T08:47:30.000Z,1091.67
2023-03-10T09:02:09.000Z,1181.67
2023-03-10T09:16:47.000Z,1046.67
2023-03-10T09:31:15.000Z,1546.67
2023-03-10T09:36:08.000Z,1378.33
2023-03-10T09:41:01.000Z,1061.67
2023-03-10T09:55:37.000Z,1902.50
2023-03-10T10:00:32.000Z,1009.17
2023-03-10T10:05:26.000Z,1260.00
2023-03-10T10:10:22.000Z,1434.17
2023-03-10T10:15:12.000Z,1392.50
2023-03-10T10:20:07.000Z,1109.17
2023-03-10T10:34:40.000Z,6553.33
2023-03-10T10:39:36.000Z,1804.17
2023-03-10T10:44:31.000Z,1920.00
2023-03-10T10:49:25.000Z,1669.17
2023-03-10T10:54:19.000Z,1720.00
2023-03-10T10:59:13.000Z,1916.67
2023-03-10T11:04:07.000Z,1005.00
2023-03-10T11:09:00.000Z,1085.00
2023-03-10T11:13:54.000Z,1940.00
2023-03-10T11:18:48.000Z,1440.00
2023-03-10T11:23:43.000Z,925.00
2023-03-10T11:28:40.000Z,938.33
2023-03-10T11:33:31.000Z,625.83
2023-03-10T11:38:24.000Z,769.17
2023-03-10T11:43:19.000Z,481.67
2023-03-10T11:48:12.000Z,599.17
2023-03-10T11:53:05.000Z,417.50
2023-03-10T11:57:59.000Z,340.83
2023-03-10T12:02:53.000Z,338.33
2023-03-10T12:17:27.000Z,542.50
2023-03-10T12:22:21.000Z,483.33
2023-03-10T12:27:15.000Z,433.33
2023-03-10T12:41:49.000Z,258.33
2023-03-10T12:46:43.000Z,377.50
2023-03-10T12:51:38.000Z,613.33
2023-03-10T12:56:32.000Z,513.33
2023-03-10T13:11:07.000Z,303.33
2023-03-10T13:15:58.000Z,332.50
2023-03-10T13:30:34.000Z,374.17
2023-03-10T13:35:29.000Z,485.00
2023-03-10T13:40:23.000Z,270.00
2023-03-10T13:54:56.000Z,220.83
2023-03-10T14:09:32.000Z,391.67
2023-03-10T14:14:25.000Z,216.67
2023-03-10T14:29:00.000Z,180.83
2023-03-10T14:43:33.000Z,226.67
2023-03-10T14:58:09.000Z,206.67
2023-03-10T15:12:44.000Z,144.17
2023-03-10T15:27:20.000Z,160.00
2023-03-10T15:41:55.000Z,130.83
2023-03-10T15:56:33.000Z,66.67
2023-03-10T16:11:09.000Z,50.00
2023-03-10T16:25:46.000Z,38.33
2023-03-10T16:40:21.000Z,20.83
2023-03-10T16:54:56.000Z,10.83
2023-03-10T17:09:33.000Z,5.00
2023-03-10T17:24:07.000Z,0.83
2023-03-10T17:38:40.000Z,0.00
2023-03-10T17:53:13.000Z,0.00
2023-03-10T18:07:46.000Z,0.00
2023-03-10T18:22:19.000Z,0.00
2023-03-10T18:36:53.000Z,0.00
2023-03-10T18:51:30.000Z,0.00
2023-03-10T19:06:03.000Z,0.00
2023-03-10T19:20:40.000Z,0.00
2023-03-10T19:35:16.000Z,0.00
2023-03-10T19:49:54.000Z,0.00
2023-03-10T20:04:28.000Z,0.00
2023-03-10T20:19:05.000Z,0.00
2023-03-10T20:47:47.000Z,0.00
2023-03-10T21:02:24.000Z,0.00
2023-03-10T21:16:56.000Z,0.00
2023-03-10T21:31:34.000Z,0.00
2023-03-10T21:46:12.000Z,0.00
2023-03-10T22:00:48.000Z,0.00
2023-03-10T22:15:26.000Z,0.00
2023-03-10T22:30:03.000Z,0.00
2023-03-10T22:58:42.000Z,0.00
2023-03-10T23:13:16.000Z,0.00
2023-03-10T23:27:51.000Z,0.00
2023-03-10T23:42:28.000Z,0.00
2023-03-10T23:57:05.000Z,0.00
